Time;durP1;ratioP1;P1;durP2;ratioP2;P2;SDS_P1;SDS_P2;PMS_P1;PMS_P2;Temp;Humidity;BMP_temperature;BMP_pressure;BME280_temperature;BME280_humidity;BME280_pressure;Samples;Min_cycle;Max_cycle;Signal;HPM_P1;HPM_P2
2023/05/19 00:01:27;;;;;;;7.10;2.83;;;;;;;;;;5109800;28;20024;-77
2023/05/19 00:03:57;;;;;;;6.38;2.97;;;;;;;;;;5111188;28;20035;-76
2023/05/19 00:06:30;;;;;;;;;;;;;;;;;;5113127;28;20135;-74
2023/05/19 00:08:58;;;;;;;6.35;2.80;;;;;;;;;;5112060;28;19919;-76
2023/05/19 00:11:25;;;;;;;6.38;2.70;;;;;;;;;;5110928;28;20599;-77
2023/05/19 00:13:52;;;;;;;6.32;2.90;;;;;;;;;;5116244;28;20320;-74
2023/05/19 00:16:18;;;;;;;6.32;2.90;;;;;;;;;;5110832;28;20088;-76
2023/05/19 00:18:43;;;;;;;4.55;2.75;;;;;;;;;;5109524;28;20024;-74
2023/05/19 00:21:08;;;;;;;5.68;2.95;;;;;;;;;;5110998;28;20042;-76
2023/05/19 00:23:34;;;;;;;7.55;2.90;;;;;;;;;;5115578;28;20092;-77
2023/05/19 00:25:59;;;;;;;4.85;2.72;;;;;;;;;;5110583;27;20386;-77
2023/05/19 00:28:24;;;;;;;5.18;2.67;;;;;;;;;;5110690;28;20069;-76
2023/05/19 00:30:50;;;;;;;6.13;2.53;;;;;;;;;;5109894;28;20015;-77
2023/05/19 00:33:16;;;;;;;6.20;2.65;;;;;;;;;;5111545;28;20207;-76
2023/05/19 00:35:41;;;;;;;5.75;2.50;;;;;;;;;;5116383;28;20028;-77
2023/05/19 00:38:06;;;;;;;5.03;2.60;;;;;;;;;;5110978;28;20054;-77
2023/05/19 00:40:37;;;;;;;5.90;2.50;;;;;;;;;;5111857;28;20540;-77
2023/05/19 00:43:04;;;;;;;5.63;2.65;;;;;;;;;;5109985;28;20483;-77
2023/05/19 00:45:30;;;;;;;6.13;2.75;;;;;;;;;;5112146;28;20042;-77
2023/05/19 00:47:56;;;;;;;4.82;2.75;;;;;;;;;;5112716;28;20032;-74
2023/05/19 00:50:23;;;;;;;5.00;2.70;;;;;;;;;;5113252;28;20036;-77
2023/05/19 00:52:49;;;;;;;7.18;2.90;;;;;;;;;;5111160;28;20077;-76
2023/05/19 00:55:15;;;;;;;7.40;2.70;;;;;;;;;;5111815;28;20028;-77
2023/05/19 00:57:41;;;;;;;5.53;2.78;;;;;;;;;;5110137;28;20038;-77
2023/05/19 01:00:07;;;;;;;5.53;2.50;;;;;;;;;;5114790;28;20030;-77
2023/05/19 01:02:33;;;;;;;6.28;2.80;;;;;;;;;;5114100;27;20102;-77
2023/05/19 01:05:00;;;;;;;6.97;3.05;;;;;;;;;;5118652;28;20027;-76
2023/05/19 01:07:26;;;;;;;7.38;2.50;;;;;;;;;;5114462;28;20026;-76
2023/05/19 01:09:52;;;;;;;4.82;2.50;;;;;;;;;;5114128;28;20089;-77
2023/05/19 01:12:17;;;;;;;7.03;2.50;;;;;;;;;;5114327;28;20020;-73
2023/05/19 01:14:43;;;;;;;4.93;2.30;;;;;;;;;;5113940;28;20503;-78
2023/05/19 01:17:29;;;;;;;4.80;2.40;;;;;;;;;;5116412;28;20028;-77
2023/05/19 01:19:56;;;;;;;4.30;2.40;;;;;;;;;;5117805;28;20024;-77
2023/05/19 01:22:42;;;;;;;6.45;2.40;;;;;;;;;;5116903;28;20015;-76
2023/05/19 01:25:31;;;;;;;9.13;2.70;;;;;;;;;;5117655;28;20039;-76
2023/05/19 01:28:11;;;;;;;6.28;2.65;;;;;;;;;;5114006;28;20479;-76
2023/05/19 01:30:39;;;;;;;8.25;2.80;;;;;;;;;;5114306;28;20088;-76
2023/05/19 01:33:07;;;;;;;6.13;2.88;;;;;;;;;;5112781;28;20020;-75
2023/05/19 01:35:35;;;;;;;9.05;2.67;;;;;;;;;;5115095;27;20027;-77
2023/05/19 01:38:03;;;;;;;4.50;2.40;;;;;;;;;;5113042;28;20043;-76
2023/05/19 01:40:29;;;;;;;6.30;2.50;;;;;;;;;;5115441;28;20019;-76
2023/05/19 01:42:57;;;;;;;8.80;2.83;;;;;;;;;;5115944;28;20398;-76
2023/05/19 01:45:24;;;;;;;6.63;2.50;;;;;;;;;;5115041;28;20031;-77
2023/05/19 01:47:53;;;;;;;5.40;2.58;;;;;;;;;;5113722;28;20020;-77
2023/05/19 01:50:19;;;;;;;5.88;2.53;;;;;;;;;;5114059;28;20077;-75
2023/05/19 01:52:44;;;;;;;5.28;2.47;;;;;;;;;;5116502;28;20027;-76
2023/05/19 01:55:10;;;;;;;3.60;2.00;;;;;;;;;;5117199;28;20065;-76
2023/05/19 01:57:41;;;;;;;6.97;2.20;;;;;;;;;;5112950;28;20027;-75
2023/05/19 02:00:17;;;;;;;6.05;2.60;;;;;;;;;;5111755;28;20054;-76
2023/05/19 02:03:18;;;;;;;5.38;2.45;;;;;;;;;;5114185;28;20034;-77
2023/05/19 02:05:53;;;;;;;6.75;2.38;;;;;;;;;;5113123;28;20111;-75
2023/05/19 02:08:24;;;;;;;7.90;2.95;;;;;;;;;;5113596;28;20056;-73
2023/05/19 02:10:59;;;;;;;8.52;2.95;;;;;;;;;;5112186;28;20076;-76
2023/05/19 02:13:30;;;;;;;6.28;2.55;;;;;;;;;;5115061;28;20031;-76
2023/05/19 02:16:03;;;;;;;5.95;2.50;;;;;;;;;;5113783;28;20102;-76
2023/05/19 02:18:29;;;;;;;7.00;2.63;;;;;;;;;;5112341;28;20039;-75
2023/05/19 02:20:54;;;;;;;7.53;2.63;;;;;;;;;;5115131;28;20270;-76
2023/05/19 02:23:20;;;;;;;6.47;2.72;;;;;;;;;;5114673;28;20600;-76
2023/05/19 02:25:45;;;;;;;8.48;2.67;;;;;;;;;;5114248;28;20046;-75
2023/05/19 02:28:10;;;;;;;8.75;3.00;;;;;;;;;;5120654;27;20080;-76
2023/05/19 02:30:36;;;;;;;7.25;2.60;;;;;;;;;;5116495;28;20399;-76
2023/05/19 02:33:01;;;;;;;5.70;2.65;;;;;;;;;;5112604;28;20059;-76
2023/05/19 02:35:27;;;;;;;7.47;3.05;;;;;;;;;;5111710;28;20514;-76
2023/05/19 02:37:52;;;;;;;7.38;2.47;;;;;;;;;;5114670;28;20474;-77
2023/05/19 02:40:18;;;;;;;6.38;2.70;;;;;;;;;;5118598;28;20027;-77
2023/05/19 02:42:43;;;;;;;5.80;2.47;;;;;;;;;;5116615;28;20036;-75
2023/05/19 02:45:09;;;;;;;7.15;2.80;;;;;;;;;;5113607;28;20034;-75
2023/05/19 02:47:35;;;;;;;5.47;2.63;;;;;;;;;;5118107;28;20082;-75
2023/05/19 02:50:00;;;;;;;8.20;3.00;;;;;;;;;;5112744;28;20132;-77
2023/05/19 02:52:26;;;;;;;5.97;3.10;;;;;;;;;;5116700;28;20076;-76
2023/05/19 02:54:51;;;;;;;6.00;2.70;;;;;;;;;;5116891;28;20027;-76
2023/05/19 02:57:16;;;;;;;10.43;2.95;;;;;;;;;;5118183;28;20087;-77
2023/05/19 02:59:42;;;;;;;8.50;2.70;;;;;;;;;;5113988;28;20023;-77
2023/05/19 03:02:07;;;;;;;7.20;2.88;;;;;;;;;;5111197;28;20108;-78
2023/05/19 03:04:40;;;;;;;10.63;2.72;;;;;;;;;;5112281;28;20027;-77
2023/05/19 03:07:06;;;;;;;8.43;2.88;;;;;;;;;;5112238;28;20139;-77
2023/05/19 03:09:31;;;;;;;6.13;2.70;;;;;;;;;;5116236;28;20132;-77
2023/05/19 03:12:02;;;;;;;9.27;3.00;;;;;;;;;;5111597;28;20031;-76
2023/05/19 03:14:28;;;;;;;7.35;3.30;;;;;;;;;;5118005;28;20016;-77
2023/05/19 03:16:54;;;;;;;6.43;3.10;;;;;;;;;;5113040;28;20378;-78
2023/05/19 03:19:20;;;;;;;9.63;3.10;;;;;;;;;;5116095;28;20084;-77
2023/05/19 03:21:46;;;;;;;9.60;2.90;;;;;;;;;;5113541;28;20011;-77
2023/05/19 03:24:12;;;;;;;9.25;2.60;;;;;;;;;;5113871;28;20023;-77
2023/05/19 03:26:37;;;;;;;5.30;2.60;;;;;;;;;;5116254;28;20137;-76
2023/05/19 03:29:03;;;;;;;7.13;2.92;;;;;;;;;;5112945;28;20492;-73
2023/05/19 03:31:29;;;;;;;5.88;2.70;;;;;;;;;;5113075;28;20015;-77
2023/05/19 03:33:56;;;;;;;4.85;2.58;;;;;;;;;;5110696;28;20016;-76
2023/05/19 03:36:22;;;;;;;7.47;3.40;;;;;;;;;;5111328;28;20036;-77
2023/05/19 03:38:48;;;;;;;7.38;3.08;;;;;;;;;;5109797;28;20471;-77
2023/05/19 03:41:13;;;;;;;5.50;2.80;;;;;;;;;;5111897;28;20106;-76
2023/05/19 03:43:39;;;;;;;7.15;2.97;;;;;;;;;;5115551;28;20024;-77
2023/05/19 03:46:05;;;;;;;7.18;3.15;;;;;;;;;;5110035;28;20028;-75
2023/05/19 03:48:30;;;;;;;7.50;2.63;;;;;;;;;;5116221;28;20030;-75
2023/05/19 03:50:56;;;;;;;12.80;4.25;;;;;;;;;;5118259;28;20027;-77
2023/05/19 03:53:22;;;;;;;10.00;3.05;;;;;;;;;;5112663;28;20083;-77
2023/05/19 03:55:48;;;;;;;8.90;3.10;;;;;;;;;;5116849;28;20031;-76
2023/05/19 03:58:14;;;;;;;7.70;3.03;;;;;;;;;;5114246;28;20032;-76
2023/05/19 04:00:40;;;;;;;6.28;3.00;;;;;;;;;;5111092;28;20027;-76
2023/05/19 04:03:06;;;;;;;7.43;3.10;;;;;;;;;;5109207;28;20028;-76
2023/05/19 04:05:32;;;;;;;7.10;3.03;;;;;;;;;;5111220;28;20019;-76
2023/05/19 04:07:57;;;;;;;6.45;3.00;;;;;;;;;;5111725;28;20031;-76
2023/05/19 04:10:23;;;;;;;9.02;2.90;;;;;;;;;;5113768;28;20028;-75
2023/05/19 04:12:49;;;;;;;8.70;2.90;;;;;;;;;;5112860;28;20043;-75
2023/05/19 04:15:14;;;;;;;7.45;3.03;;;;;;;;;;5113206;28;20491;-75
2023/05/19 04:17:40;;;;;;;7.65;3.42;;;;;;;;;;5110050;28;20076;-76
2023/05/19 04:20:06;;;;;;;6.32;3.10;;;;;;;;;;5111481;28;20027;-77
2023/05/19 04:22:32;;;;;;;7.95;3.10;;;;;;;;;;5112380;28;20034;-76
2023/05/19 04:24:58;;;;;;;4.97;2.80;;;;;;;;;;5110333;28;20027;-75
2023/05/19 04:27:23;;;;;;;6.15;3.13;;;;;;;;;;5112408;28;20479;-75
2023/05/19 04:29:48;;;;;;;8.20;3.30;;;;;;;;;;5113777;28;20026;-76
2023/05/19 04:32:16;;;;;;;9.20;3.00;;;;;;;;;;5111256;28;20031;-77
2023/05/19 04:34:44;;;;;;;6.65;2.85;;;;;;;;;;5109603;28;20024;-77
2023/05/19 04:37:13;;;;;;;8.00;2.72;;;;;;;;;;5110343;28;20069;-76
2023/05/19 04:39:42;;;;;;;6.55;3.10;;;;;;;;;;5110566;28;20031;-75
2023/05/19 04:42:08;;;;;;;8.55;3.00;;;;;;;;;;5111026;28;20107;-76
2023/05/19 04:44:34;;;;;;;7.00;3.00;;;;;;;;;;5109950;28;20031;-76
2023/05/19 04:47:00;;;;;;;8.70;3.00;;;;;;;;;;5110492;28;20151;-76
2023/05/19 04:49:25;;;;;;;8.38;2.88;;;;;;;;;;5108795;28;20148;-76
2023/05/19 04:51:51;;;;;;;7.43;2.97;;;;;;;;;;5110099;28;20038;-77
2023/05/19 04:54:17;;;;;;;6.22;2.90;;;;;;;;;;5112369;28;20031;-76
2023/05/19 04:56:42;;;;;;;8.23;3.20;;;;;;;;;;5108915;28;20023;-73
2023/05/19 04:59:08;;;;;;;7.07;3.22;;;;;;;;;;5109321;28;20500;-77
2023/05/19 05:01:39;;;;;;;7.45;3.05;;;;;;;;;;5111135;28;20023;-72
2023/05/19 05:04:05;;;;;;;7.15;3.00;;;;;;;;;;5108664;28;20074;-75
2023/05/19 05:06:30;;;;;;;13.38;3.72;;;;;;;;;;5108897;28;20059;-75
2023/05/19 05:08:55;;;;;;;7.78;3.40;;;;;;;;;;5110666;28;20059;-72
2023/05/19 05:11:21;;;;;;;9.48;3.97;;;;;;;;;;5108703;28;20027;-72
2023/05/19 05:13:47;;;;;;;6.30;2.90;;;;;;;;;;5108873;28;20035;-72
2023/05/19 05:16:13;;;;;;;11.75;3.08;;;;;;;;;;5109398;28;20363;-74
2023/05/19 05:18:38;;;;;;;7.07;2.70;;;;;;;;;;5111113;28;20369;-76
2023/05/19 05:21:05;;;;;;;6.50;3.20;;;;;;;;;;5110552;28;20019;-77
2023/05/19 05:23:31;;;;;;;9.13;3.10;;;;;;;;;;5112895;28;20019;-76
2023/05/19 05:25:57;;;;;;;7.57;3.10;;;;;;;;;;5110613;28;20019;-77
2023/05/19 05:28:22;;;;;;;7.18;2.80;;;;;;;;;;5111619;28;20054;-76
2023/05/19 05:30:49;;;;;;;5.75;2.90;;;;;;;;;;5112126;28;20039;-77
2023/05/19 05:33:14;;;;;;;8.98;3.00;;;;;;;;;;5111200;28;20019;-77
2023/05/19 05:35:40;;;;;;;6.70;2.78;;;;;;;;;;5112945;28;20027;-76
2023/05/19 05:38:05;;;;;;;7.63;3.30;;;;;;;;;;5109346;28;20508;-77
2023/05/19 05:40:31;;;;;;;6.30;2.80;;;;;;;;;;5111560;28;20043;-77
2023/05/19 05:42:57;;;;;;;10.32;3.70;;;;;;;;;;5113085;28;20483;-77
2023/05/19 05:45:23;;;;;;;10.00;2.95;;;;;;;;;;5118605;28;20041;-77
2023/05/19 05:47:50;;;;;;;9.23;2.83;;;;;;;;;;5115812;28;20034;-76
2023/05/19 05:50:16;;;;;;;8.70;3.03;;;;;;;;;;5117582;28;20028;-77
2023/05/19 05:52:45;;;;;;;8.77;3.38;;;;;;;;;;5117254;28;20092;-73
2023/05/19 05:55:11;;;;;;;8.00;3.03;;;;;;;;;;5117424;28;20347;-77
2023/05/19 05:57:36;;;;;;;8.93;3.08;;;;;;;;;;5117223;28;20027;-77
2023/05/19 06:00:06;;;;;;;8.32;3.17;;;;;;;;;;5118346;28;20020;-76
2023/05/19 06:02:31;;;;;;;6.57;3.13;;;;;;;;;;5121697;28;20023;-76
2023/05/19 06:04:57;;;;;;;6.50;3.20;;;;;;;;;;5116483;28;20038;-77
2023/05/19 06:07:23;;;;;;;7.68;3.05;;;;;;;;;;5118348;28;20053;-76
2023/05/19 06:09:48;;;;;;;6.82;3.00;;;;;;;;;;5115942;28;20035;-77
2023/05/19 06:12:14;;;;;;;6.95;3.20;;;;;;;;;;5114299;28;20521;-73
2023/05/19 06:14:39;;;;;;;8.63;3.17;;;;;;;;;;5117312;28;20023;-77
2023/05/19 06:17:04;;;;;;;7.75;3.22;;;;;;;;;;5115356;28;20036;-76
2023/05/19 06:19:33;;;;;;;9.23;3.20;;;;;;;;;;5112764;28;20066;-74
2023/05/19 06:21:58;;;;;;;9.82;3.65;;;;;;;;;;5113835;28;20031;-75
2023/05/19 06:24:24;;;;;;;8.93;3.20;;;;;;;;;;5114103;28;20020;-73
2023/05/19 06:26:49;;;;;;;6.13;3.10;;;;;;;;;;5112217;28;20597;-74
2023/05/19 06:29:15;;;;;;;8.57;2.80;;;;;;;;;;5114098;28;20308;-74
2023/05/19 06:31:41;;;;;;;9.60;3.10;;;;;;;;;;5113061;28;20095;-74
2023/05/19 06:34:09;;;;;;;6.82;3.05;;;;;;;;;;5112864;28;20093;-75
2023/05/19 06:36:34;;;;;;;5.88;2.95;;;;;;;;;;5110659;28;20036;-75
2023/05/19 06:39:00;;;;;;;8.10;2.90;;;;;;;;;;5114879;28;20107;-73
2023/05/19 06:41:25;;;;;;;9.13;3.35;;;;;;;;;;5111013;28;20023;-74
2023/05/19 06:43:51;;;;;;;12.40;3.28;;;;;;;;;;5113525;28;20115;-72
2023/05/19 06:46:16;;;;;;;6.93;3.10;;;;;;;;;;5111470;28;20024;-75
2023/05/19 06:48:42;;;;;;;7.03;2.85;;;;;;;;;;5111629;28;20031;-75
2023/05/19 06:51:09;;;;;;;7.32;2.80;;;;;;;;;;5116837;28;20062;-74
2023/05/19 06:53:34;;;;;;;8.43;3.20;;;;;;;;;;5116958;28;20069;-75
2023/05/19 06:55:59;;;;;;;7.05;2.88;;;;;;;;;;5112540;28;20039;-75
2023/05/19 06:58:25;;;;;;;7.65;3.05;;;;;;;;;;5110798;28;20539;-75
2023/05/19 07:00:51;;;;;;;6.63;3.38;;;;;;;;;;5111233;28;20026;-74
2023/05/19 07:03:17;;;;;;;7.43;3.20;;;;;;;;;;5118282;28;20026;-75
2023/05/19 07:05:42;;;;;;;6.53;3.00;;;;;;;;;;5098994;28;20039;-74
2023/05/19 07:08:08;;;;;;;9.25;3.00;;;;;;;;;;5091485;28;20032;-75
2023/05/19 07:10:33;;;;;;;7.78;2.95;;;;;;;;;;5088219;28;20020;-77
2023/05/19 07:12:58;;;;;;;8.25;3.50;;;;;;;;;;5088972;28;20618;-76
2023/05/19 07:15:24;;;;;;;5.70;3.20;;;;;;;;;;5081446;28;20012;-75
2023/05/19 07:17:49;;;;;;;7.40;3.20;;;;;;;;;;5090333;28;20494;-76
2023/05/19 07:20:15;;;;;;;9.18;3.10;;;;;;;;;;5090474;28;20020;-77
2023/05/19 07:22:40;;;;;;;11.10;3.05;;;;;;;;;;5088219;28;20441;-75
2023/05/19 07:25:07;;;;;;;5.47;2.90;;;;;;;;;;5089722;28;20091;-76
2023/05/19 07:27:32;;;;;;;9.10;3.47;;;;;;;;;;5089169;28;20031;-76
2023/05/19 07:29:58;;;;;;;9.90;3.03;;;;;;;;;;5089278;28;20024;-76
2023/05/19 07:32:23;;;;;;;9.57;3.20;;;;;;;;;;5087567;28;20024;-76
2023/05/19 07:34:49;;;;;;;7.00;3.22;;;;;;;;;;5089135;28;20016;-76
2023/05/19 07:37:15;;;;;;;5.85;3.28;;;;;;;;;;5088435;28;20587;-75
2023/05/19 07:39:40;;;;;;;7.13;3.20;;;;;;;;;;5089073;28;20601;-74
2023/05/19 07:42:06;;;;;;;7.45;3.28;;;;;;;;;;5091140;28;20042;-78
2023/05/19 07:44:31;;;;;;;10.48;3.55;;;;;;;;;;5091333;28;20032;-79
2023/05/19 07:46:57;;;;;;;8.10;3.20;;;;;;;;;;5089155;28;20085;-78
2023/05/19 07:49:22;;;;;;;9.77;3.00;;;;;;;;;;5088498;28;20035;-78
2023/05/19 07:51:48;;;;;;;9.77;3.40;;;;;;;;;;5089383;28;20019;-79
2023/05/19 07:54:13;;;;;;;8.63;3.35;;;;;;;;;;5081769;28;20031;-76
2023/05/19 07:56:38;;;;;;;7.45;3.25;;;;;;;;;;5089514;28;20023;-80
2023/05/19 07:59:04;;;;;;;12.10;3.50;;;;;;;;;;5088437;28;20024;-79
2023/05/19 08:01:31;;;;;;;8.52;3.17;;;;;;;;;;5088781;28;20459;-78
2023/05/19 08:03:56;;;;;;;6.22;2.80;;;;;;;;;;5088246;28;20629;-78
2023/05/19 08:06:22;;;;;;;7.53;3.40;;;;;;;;;;5087600;28;20032;-78
2023/05/19 08:08:47;;;;;;;6.55;3.22;;;;;;;;;;5087714;28;20106;-78
2023/05/19 08:11:13;;;;;;;5.50;2.97;;;;;;;;;;5088247;28;20535;-77
2023/05/19 08:13:38;;;;;;;6.85;3.05;;;;;;;;;;5088600;28;20027;-78
2023/05/19 08:16:04;;;;;;;7.80;3.08;;;;;;;;;;5088250;28;20018;-74
2023/05/19 08:18:29;;;;;;;7.10;3.03;;;;;;;;;;5087805;28;20024;-75
2023/05/19 08:20:55;;;;;;;10.40;3.17;;;;;;;;;;5087549;28;20031;-77
2023/05/19 08:23:20;;;;;;;6.45;3.00;;;;;;;;;;5087506;28;20047;-71
2023/05/19 08:25:46;;;;;;;9.10;3.10;;;;;;;;;;5087999;28;20477;-77
2023/05/19 08:28:12;;;;;;;10.75;3.33;;;;;;;;;;5087896;28;20024;-77
2023/05/19 08:30:37;;;;;;;7.85;2.92;;;;;;;;;;5088650;28;20107;-76
2023/05/19 08:33:03;;;;;;;8.00;3.15;;;;;;;;;;5088534;28;20030;-77
2023/05/19 08:35:28;;;;;;;11.23;3.20;;;;;;;;;;5086343;28;20028;-76
2023/05/19 08:37:54;;;;;;;6.85;2.92;;;;;;;;;;5087812;28;20066;-77
2023/05/19 08:40:19;;;;;;;8.43;3.40;;;;;;;;;;5089160;28;20032;-77
2023/05/19 08:42:45;;;;;;;13.10;3.65;;;;;;;;;;5099746;28;20038;-78
2023/05/19 08:45:11;;;;;;;8.15;3.20;;;;;;;;;;5098000;28;20051;-78
2023/05/19 08:47:37;;;;;;;13.18;3.20;;;;;;;;;;5093808;28;20380;-78
2023/05/19 08:50:09;;;;;;;6.90;3.10;;;;;;;;;;5094967;28;20224;-76
2023/05/19 08:52:51;;;;;;;7.90;3.08;;;;;;;;;;5098594;28;20036;-76
2023/05/19 08:55:39;;;;;;;8.95;2.92;;;;;;;;;;5100151;28;20028;-77
2023/05/19 08:58:05;;;;;;;8.05;3.22;;;;;;;;;;5097379;28;20201;-77
2023/05/19 09:00:31;;;;;;;7.75;3.03;;;;;;;;;;5094760;28;20032;-74
2023/05/19 09:02:59;;;;;;;9.27;3.15;;;;;;;;;;5083812;28;20543;-74
2023/05/19 09:05:24;;;;;;;7.28;3.00;;;;;;;;;;5091027;28;20048;-73
2023/05/19 09:07:50;;;;;;;9.20;3.20;;;;;;;;;;5086770;28;20420;-74
2023/05/19 09:10:15;;;;;;;7.68;3.10;;;;;;;;;;5087883;28;20464;-73
2023/05/19 09:12:46;;;;;;;9.95;3.10;;;;;;;;;;5087115;28;20028;-74
2023/05/19 09:15:11;;;;;;;;;;;;;;;;;;5088289;28;20036;-72
2023/05/19 09:17:38;;;;;;;7.40;2.90;;;;;;;;;;5087892;28;19912;-73
2023/05/19 09:20:10;;;;;;;9.05;3.20;;;;;;;;;;5089942;28;20036;-72
2023/05/19 09:22:46;;;;;;;8.35;3.40;;;;;;;;;;5091372;28;20032;-74
2023/05/19 09:25:47;;;;;;;7.65;3.13;;;;;;;;;;5092072;28;20055;-72
2023/05/19 09:28:13;;;;;;;9.75;3.20;;;;;;;;;;5090986;28;20056;-74
2023/05/19 09:30:38;;;;;;;11.57;3.50;;;;;;;;;;5091861;28;20051;-72
2023/05/19 09:33:08;;;;;;;7.78;3.05;;;;;;;;;;5091833;28;20028;-74
2023/05/19 09:35:34;;;;;;;9.73;3.10;;;;;;;;;;5091911;28;20579;-73
2023/05/19 09:38:00;;;;;;;11.90;3.20;;;;;;;;;;5091141;28;20192;-73
2023/05/19 09:40:27;;;;;;;8.90;3.08;;;;;;;;;;5091673;28;20024;-73
2023/05/19 09:42:52;;;;;;;7.07;2.83;;;;;;;;;;5091345;28;20016;-74
2023/05/19 09:45:18;;;;;;;8.35;2.92;;;;;;;;;;5090443;28;20160;-73
2023/05/19 09:47:44;;;;;;;9.90;3.10;;;;;;;;;;5091604;28;20051;-73
2023/05/19 09:50:11;;;;;;;7.88;3.03;;;;;;;;;;5091504;28;20443;-74
2023/05/19 09:52:37;;;;;;;6.00;3.10;;;;;;;;;;5091169;28;20062;-72
2023/05/19 09:55:05;;;;;;;8.57;3.00;;;;;;;;;;5091584;28;20503;-73
2023/05/19 09:57:38;;;;;;;6.50;2.80;;;;;;;;;;5087696;28;20056;-71
2023/05/19 10:00:13;;;;;;;6.88;2.90;;;;;;;;;;5070998;28;20086;-72
2023/05/19 10:02:43;;;;;;;8.23;2.88;;;;;;;;;;5071214;28;20070;-72
2023/05/19 10:05:21;;;;;;;9.85;3.13;;;;;;;;;;5071500;28;20028;-74
2023/05/19 10:07:50;;;;;;;7.53;2.83;;;;;;;;;;5070722;28;20037;-74
2023/05/19 10:10:16;;;;;;;8.00;3.22;;;;;;;;;;5070732;28;20028;-74
2023/05/19 10:12:42;;;;;;;7.20;2.95;;;;;;;;;;5070806;28;20040;-74
2023/05/19 10:15:10;;;;;;;7.53;2.83;;;;;;;;;;5070885;28;20032;-74
2023/05/19 10:17:37;;;;;;;10.95;2.95;;;;;;;;;;5085927;28;20511;-73
2023/05/19 10:20:05;;;;;;;9.23;3.10;;;;;;;;;;5070688;28;20036;-75
2023/05/19 10:22:31;;;;;;;7.90;2.92;;;;;;;;;;5070347;28;20353;-73
2023/05/19 10:24:57;;;;;;;8.25;3.13;;;;;;;;;;5070812;28;20722;-73
2023/05/19 10:27:23;;;;;;;11.00;2.85;;;;;;;;;;5070479;28;20033;-73
2023/05/19 10:29:51;;;;;;;6.72;3.08;;;;;;;;;;5070112;28;20407;-74
2023/05/19 10:32:21;;;;;;;6.95;2.90;;;;;;;;;;5070339;28;20100;-74
2023/05/19 10:35:02;;;;;;;7.68;3.40;;;;;;;;;;5070375;28;20058;-74
2023/05/19 10:37:27;;;;;;;6.35;2.85;;;;;;;;;;5069868;28;20061;-74
2023/05/19 10:39:54;;;;;;;9.60;2.97;;;;;;;;;;5070301;28;20043;-73
2023/05/19 10:42:54;;;;;;;8.00;3.17;;;;;;;;;;5070245;28;20528;-73
2023/05/19 10:45:22;;;;;;;9.02;3.33;;;;;;;;;;5070306;28;20048;-73
2023/05/19 10:47:50;;;;;;;5.78;2.90;;;;;;;;;;5070151;28;20073;-74
2023/05/19 10:50:16;;;;;;;8.00;2.95;;;;;;;;;;5070034;28;20035;-74
2023/05/19 10:52:43;;;;;;;8.77;3.08;;;;;;;;;;5069437;28;20024;-74
2023/05/19 10:55:16;;;;;;;9.13;3.22;;;;;;;;;;5085668;28;20027;-74
2023/05/19 10:57:55;;;;;;;9.27;3.20;;;;;;;;;;5069781;28;20037;-73
2023/05/19 11:00:28;;;;;;;7.85;2.88;;;;;;;;;;5069781;28;20142;-73
2023/05/19 11:03:22;;;;;;;8.63;3.10;;;;;;;;;;5069864;28;20017;-74
2023/05/19 11:05:50;;;;;;;8.82;3.03;;;;;;;;;;5070111;28;20028;-73
2023/05/19 11:08:30;;;;;;;9.45;3.35;;;;;;;;;;5069284;28;20025;-73
2023/05/19 11:10:56;;;;;;;13.50;3.35;;;;;;;;;;5069842;28;20028;-73
2023/05/19 11:13:21;;;;;;;7.43;3.17;;;;;;;;;;5069613;28;20426;-73
2023/05/19 11:15:48;;;;;;;6.97;3.20;;;;;;;;;;5069864;28;20423;-73
2023/05/19 11:18:16;;;;;;;8.75;3.05;;;;;;;;;;5069438;28;20090;-73
2023/05/19 11:20:43;;;;;;;8.38;3.53;;;;;;;;;;5069503;28;20028;-73
2023/05/19 11:23:20;;;;;;;6.18;2.83;;;;;;;;;;5084711;28;20079;-74
2023/05/19 11:25:48;;;;;;;10.80;2.95;;;;;;;;;;5084971;28;20025;-74
2023/05/19 11:28:18;;;;;;;8.73;3.22;;;;;;;;;;5069266;28;20054;-75
2023/05/19 11:30:49;;;;;;;10.40;2.78;;;;;;;;;;5069538;28;20021;-75
2023/05/19 11:33:18;;;;;;;7.82;2.90;;;;;;;;;;5069317;28;20068;-75
2023/05/19 11:35:48;;;;;;;11.10;3.20;;;;;;;;;;5069669;28;20028;-74
2023/05/19 11:38:13;;;;;;;6.72;2.95;;;;;;;;;;5068458;28;20072;-73
2023/05/19 11:40:42;;;;;;;10.63;3.00;;;;;;;;;;5069123;28;20064;-73
2023/05/19 11:43:07;;;;;;;10.52;2.83;;;;;;;;;;5068361;28;20039;-72
2023/05/19 11:45:33;;;;;;;9.95;2.90;;;;;;;;;;5069052;28;20025;-73
2023/05/19 11:47:59;;;;;;;7.25;3.28;;;;;;;;;;5068823;28;20033;-72
2023/05/19 11:50:25;;;;;;;8.45;3.05;;;;;;;;;;5069044;28;20033;-71
2023/05/19 11:52:51;;;;;;;8.10;3.10;;;;;;;;;;5068806;28;20031;-70
2023/05/19 11:55:18;;;;;;;6.68;2.72;;;;;;;;;;5068850;28;20048;-74
2023/05/19 11:57:53;;;;;;;7.68;2.80;;;;;;;;;;5068933;28;20026;-74
2023/05/19 12:00:21;;;;;;;7.07;3.00;;;;;;;;;;5085210;28;20442;-72
2023/05/19 12:02:47;;;;;;;6.32;3.08;;;;;;;;;;5087770;28;20016;-74
2023/05/19 12:05:23;;;;;;;8.85;3.17;;;;;;;;;;5087943;28;20107;-71
2023/05/19 12:07:50;;;;;;;9.40;3.15;;;;;;;;;;5084999;28;20031;-74
2023/05/19 12:10:29;;;;;;;8.05;2.80;;;;;;;;;;5084336;28;20122;-73
2023/05/19 12:12:55;;;;;;;9.20;2.90;;;;;;;;;;5081521;28;20073;-73
2023/05/19 12:15:21;;;;;;;7.93;2.85;;;;;;;;;;5090840;28;20024;-73
2023/05/19 12:17:57;;;;;;;8.32;2.95;;;;;;;;;;5083605;28;20025;-71
2023/05/19 12:20:24;;;;;;;8.30;3.50;;;;;;;;;;5099042;28;20031;-72
2023/05/19 12:22:50;;;;;;;7.78;3.17;;;;;;;;;;5098960;28;20091;-72
2023/05/19 12:25:15;;;;;;;6.85;2.95;;;;;;;;;;5097754;28;20590;-74
2023/05/19 12:27:42;;;;;;;10.50;3.25;;;;;;;;;;5086825;28;20028;-72
2023/05/19 12:30:09;;;;;;;10.63;3.22;;;;;;;;;;5075339;28;20027;-72
2023/05/19 12:32:35;;;;;;;8.80;3.55;;;;;;;;;;5075506;28;20021;-73
2023/05/19 12:35:05;;;;;;;13.15;3.30;;;;;;;;;;5069411;28;20021;-73
2023/05/19 12:37:34;;;;;;;;;;;;;;;;;;5068156;28;20056;-72
2023/05/19 12:40:00;;;;;;;7.50;3.10;;;;;;;;;;5066004;28;19954;-73
2023/05/19 12:42:30;;;;;;;10.10;3.70;;;;;;;;;;5067434;28;20027;-73
2023/05/19 12:44:57;;;;;;;7.50;3.20;;;;;;;;;;5067993;28;20396;-73
2023/05/19 12:47:29;;;;;;;9.75;3.25;;;;;;;;;;5068327;28;20128;-74
2023/05/19 12:50:02;;;;;;;7.82;3.40;;;;;;;;;;5068164;28;20024;-73
2023/05/19 12:52:29;;;;;;;7.35;3.10;;;;;;;;;;5067675;28;20086;-71
2023/05/19 12:55:04;;;;;;;7.50;3.05;;;;;;;;;;5071551;28;20032;-74
2023/05/19 12:57:33;;;;;;;6.68;2.78;;;;;;;;;;5072204;28;20075;-74
2023/05/19 13:00:06;;;;;;;7.95;3.08;;;;;;;;;;5071904;28;20094;-76
2023/05/19 13:02:52;;;;;;;9.98;2.88;;;;;;;;;;5072057;28;20059;-74
2023/05/19 13:05:18;;;;;;;7.90;2.97;;;;;;;;;;5070917;28;20052;-73
2023/05/19 13:07:58;;;;;;;5.72;2.70;;;;;;;;;;5071874;28;20503;-71
2023/05/19 13:10:27;;;;;;;6.88;3.13;;;;;;;;;;5071939;28;20027;-73
2023/05/19 13:12:57;;;;;;;5.45;2.80;;;;;;;;;;5072030;28;20035;-71
2023/05/19 13:15:30;;;;;;;6.78;2.40;;;;;;;;;;5071988;28;20569;-73
2023/05/19 13:17:56;;;;;;;7.50;2.80;;;;;;;;;;5072053;28;20500;-73
2023/05/19 13:20:22;;;;;;;8.32;3.20;;;;;;;;;;5070574;28;20017;-74
2023/05/19 13:22:48;;;;;;;7.07;2.80;;;;;;;;;;5071636;28;20024;-73
2023/05/19 13:25:13;;;;;;;9.35;3.30;;;;;;;;;;5071756;28;20024;-74
2023/05/19 13:27:39;;;;;;;9.63;2.90;;;;;;;;;;5071833;28;20051;-74
2023/05/19 13:30:05;;;;;;;6.40;2.58;;;;;;;;;;5071649;28;20024;-72
2023/05/19 13:32:31;;;;;;;7.80;3.15;;;;;;;;;;5071539;28;20546;-74
2023/05/19 13:34:57;;;;;;;9.00;2.90;;;;;;;;;;5071239;28;20020;-74
2023/05/19 13:37:23;;;;;;;7.97;3.03;;;;;;;;;;5071198;28;20040;-71
2023/05/19 13:39:48;;;;;;;7.53;3.10;;;;;;;;;;5071605;28;20055;-74
2023/05/19 13:42:15;;;;;;;6.65;2.92;;;;;;;;;;5071519;28;20017;-74
2023/05/19 13:44:40;;;;;;;7.03;2.70;;;;;;;;;;5071113;28;20029;-74
2023/05/19 13:47:05;;;;;;;6.80;2.70;;;;;;;;;;5071433;28;20050;-73
2023/05/19 13:49:31;;;;;;;5.82;2.60;;;;;;;;;;5071070;28;20078;-72
2023/05/19 13:51:57;;;;;;;8.45;3.10;;;;;;;;;;5069566;28;20020;-74
2023/05/19 13:54:22;;;;;;;12.20;3.00;;;;;;;;;;5071199;28;20029;-74
2023/05/19 13:56:48;;;;;;;6.05;2.97;;;;;;;;;;5080091;28;20016;-75
2023/05/19 13:59:16;;;;;;;7.82;3.17;;;;;;;;;;5090976;28;20489;-73
2023/05/19 14:01:42;;;;;;;8.98;3.60;;;;;;;;;;5090685;28;20020;-75
2023/05/19 14:04:08;;;;;;;11.77;3.97;;;;;;;;;;5090546;28;20016;-72
2023/05/19 14:06:33;;;;;;;11.93;3.85;;;;;;;;;;5089565;28;20074;-74
2023/05/19 14:08:58;;;;;;;12.20;3.80;;;;;;;;;;5090608;28;20028;-73
2023/05/19 14:11:25;;;;;;;9.00;3.50;;;;;;;;;;5090370;28;20015;-73
2023/05/19 14:13:50;;;;;;;12.85;3.83;;;;;;;;;;5090816;28;20027;-72
2023/05/19 14:16:16;;;;;;;8.57;3.35;;;;;;;;;;5090509;28;20024;-73
2023/05/19 14:18:42;;;;;;;6.07;2.90;;;;;;;;;;5090472;28;20028;-74
2023/05/19 14:21:07;;;;;;;5.90;2.72;;;;;;;;;;5089769;28;20024;-75
2023/05/19 14:23:33;;;;;;;7.65;2.80;;;;;;;;;;5090356;28;20031;-74
2023/05/19 14:25:59;;;;;;;7.20;3.10;;;;;;;;;;5090119;28;20062;-75
2023/05/19 14:28:25;;;;;;;8.18;2.90;;;;;;;;;;5090494;28;20016;-73
2023/05/19 14:30:50;;;;;;;10.02;2.72;;;;;;;;;;5090369;28;20039;-72
2023/05/19 14:33:16;;;;;;;6.63;2.80;;;;;;;;;;5090545;28;20271;-74
2023/05/19 14:35:41;;;;;;;7.57;2.63;;;;;;;;;;5090201;28;20616;-72
2023/05/19 14:38:07;;;;;;;8.02;2.78;;;;;;;;;;5089555;28;20043;-73
2023/05/19 14:40:32;;;;;;;7.75;2.97;;;;;;;;;;5089878;28;20031;-74
2023/05/19 14:42:57;;;;;;;8.73;2.80;;;;;;;;;;5089720;28;20035;-72
2023/05/19 14:45:23;;;;;;;9.40;3.17;;;;;;;;;;5090000;28;20118;-73